This is the latest recevied weather packets stored in our database for station/object OE-11140. If no packets are shown the sender has not sent any weather packets the latest 10 day(s).
| Time | Temp. | Humidity | Pressure | Rain* | Wind** | Luminosity | Snow |
|---|---|---|---|---|---|---|---|
| 1787851516 | 24.44° C | 73% | 1011 hPa | 0 mm | - | 46 W/m² | - |
| 1787850689 | 25.56° C | 71% | 1010.8 hPa | 0 mm | - | 60 W/m² | - |
| 1787850316 | 26.11° C | 70% | 1010.7 hPa | 0 mm | - | 80 W/m² | - |
| 1787849716 | 26.67° C | 61% | 1010.5 hPa | 0 mm | - | 80 W/m² | - |
| 1787848889 | 27.22° C | 60% | 1010.7 hPa | 0 mm | - | 93 W/m² | - |
| 1787848516 | 27.22° C | 58% | 1010.7 hPa | 0 mm | - | 93 W/m² | - |
| 1787847916 | 27.78° C | 58% | 1010.6 hPa | 0 mm | - | 86 W/m² | - |
| 1787847089 | 27.78° C | 55% | 1010.5 hPa | 0 mm | - | 99 W/m² | - |
| 1787846716 | 28.33° C | 53% | 1010.3 hPa | 0 mm | - | 159 W/m² | - |
| 1787846116 | 28.89° C | 53% | 1010.1 hPa | 0 mm | - | 252 W/m² | - |
| 1787845288 | 28.89° C | 51% | 1010.1 hPa | 0 mm | - | 305 W/m² | - |
| 1787844916 | 28.89° C | 48% | 1010.2 hPa | 0 mm | - | 265 W/m² | - |
| 1787844316 | 29.44° C | 48% | 1010 hPa | 0 mm | - | 305 W/m² | - |
| 1787843489 | 29.44° C | 46% | 1009.9 hPa | 0 mm | - | 391 W/m² | - |
| 1787843116 | 29.44° C | 45% | 1010.1 hPa | 0 mm | - | 391 W/m² | - |
| 1787842516 | 29.44° C | 48% | 1009.9 hPa | 0 mm | - | 371 W/m² | - |
| 1787841687 | 29.44° C | 46% | 1010 hPa | 0 mm | - | 245 W/m² | - |
| 1787841316 | 29.44° C | 44% | 1010 hPa | 0 mm | - | 292 W/m² | - |
| 1787839889 | 30° C | 43% | 1009.9 hPa | 0 mm | - | 331 W/m² | - |
| 1787839516 | 30.56° C | 41% | 1009.8 hPa | 0 mm | - | 404 W/m² | - |
| 1787838916 | 30.56° C | 40% | 1009.8 hPa | 0 mm | - | 418 W/m² | - |
| 1787838089 | 31.11° C | 40% | 1009.6 hPa | 0 mm | - | 603 W/m² | - |
| 1787837716 | 31.11° C | 38% | 1009.7 hPa | 0 mm | - | 630 W/m² | - |
| 1787837116 | 31.11° C | 38% | 1009.7 hPa | 0 mm | - | 643 W/m² | - |
| 1787836289 | 31.11° C | 38% | 1009.8 hPa | 0 mm | - | 676 W/m² | - |
* Rain latest hour (hover to see other rain measurements)
** Current wind speed in m/s (hover to see current wind gust speed)